Aérodrome :
LOGIN :

S'inscrire | Disclaimer

   EN    FR    IT 

 










Légende :    VFR   VFR Marginal   IFR   IFR Intensif   IFR Très Intensif
Visi : 
Plafond : 
>= 8 km
>= 3000ft
5 à 8 km
1000 à 3000 ft
1500m à 5 km
500 à 1000 ft
800 à 1500m
200 à 500 ft
< 800m
< 200 ft
Symboles :   Orages  Brouillard  Fortes neiges  Fortes précipitations  Vent > 20 kt
SIGMETs :   Divers  Orages  Givrage  Turbulence  Onde Orograph.  Cendres Volcan.







- Altitude de l'aérodrome : 157 ft
- Code IATA : SXF


EDDB - Berlin Schönefeld

METARs EXPIRÉS :
  • 241420Z 27010KT 9999 FEW035 BKN063 23/15 Q1011 NOSIG
  • 241350Z 28010KT 250V310 9999 FEW035 BKN063 23/15 Q1011 NOSIG
  • 241320Z 27011KT 9999 FEW035 SCT041 BKN060 22/15 Q1011 NOSIG
  • 241250Z 29010KT 9999 FEW035 SCT041 BKN060 22/15 Q1012 NOSIG
  • 241220Z 29012KT 9999 FEW035 BKN041 21/14 Q1012 NOSIG
  • 241150Z 27014KT 9999 FEW035 BKN046 22/15 Q1012 NOSIG

TAF TAF EDDB
Valide du 24 à 12h jusqu'au 25 à 12h UTC


241100Z 2412/2512 27015KT 9999 FEW030
BECMG 2417/2421 21007KT
BECMG 2505/2507 25012KT
TEMPO 2510/2511 25015G25KT
Pas de NOTAMs connus pour ce terrain.



MET'MAP, la Météo Aéronautique d'un coup d'oeil ! - Copyright ORBIFLY Décembre 2007 - Disclaimer

ORBIFLY MET'MAP TEAM :

Programmation & Développement : Alexandra Zaïnal
Conception & Développement : Baudouin d'Aumeries
Co-Programmation & Développement : Marc-Olivier Méhu
Soutien technique & logistique : Manuel Goepfert

Contact : metmap@orbifly.com




SOURCES & CREDITS :

   NOAA